Time;durP1;ratioP1;P1;durP2;ratioP2;P2;SDS_P1;SDS_P2;PMS_P1;PMS_P2;Temp;Humidity;BMP_temperature;BMP_pressure;BME280_temperature;BME280_humidity;BME280_pressure;Samples;Min_cycle;Max_cycle;Signal;HPM_P1;HPM_P2
2022/08/29 00:02:15;;;;;;;3.70;3.30;;;;;;;;;;108230;1297;22680;-25
2022/08/29 00:04:41;;;;;;;11.90;4.20;;;;;;;;;;108623;1297;23143;-29
2022/08/29 00:07:06;;;;;;;5.50;3.80;;;;;;;;;;108733;1297;23309;-29
2022/08/29 00:09:32;;;;;;;5.70;3.40;;;;;;;;;;108726;1297;23185;-29
2022/08/29 00:11:58;;;;;;;4.80;3.40;;;;;;;;;;108710;1298;25110;-29
2022/08/29 00:14:23;;;;;;;4.80;3.00;;;;;;;;;;108723;1302;23238;-25
2022/08/29 00:16:49;;;;;;;3.20;2.70;;;;;;;;;;108736;1304;22525;-29
2022/08/29 00:19:15;;;;;;;6.50;3.90;;;;;;;;;;108730;1297;22528;-29
2022/08/29 00:21:40;;;;;;;4.30;3.20;;;;;;;;;;108736;1298;22912;-29
2022/08/29 00:24:06;;;;;;;8.80;2.90;;;;;;;;;;108657;1304;22413;-25
2022/08/29 00:26:32;;;;;;;6.80;3.60;;;;;;;;;;108666;1304;22565;-29
2022/08/29 00:28:57;;;;;;;7.80;2.70;;;;;;;;;;108426;1304;23083;-29
2022/08/29 00:31:22;;;;;;;5.60;4.00;;;;;;;;;;108515;1304;23346;-29
2022/08/29 00:33:50;;;;;;;8.40;3.80;;;;;;;;;;108652;1297;22415;-29
2022/08/29 00:36:15;;;;;;;4.20;3.20;;;;;;;;;;108492;1297;23088;-25
2022/08/29 00:38:40;;;;;;;4.60;2.90;;;;;;;;;;108695;1298;23307;-25
2022/08/29 00:41:06;;;;;;;4.30;2.60;;;;;;;;;;108672;1297;23323;-25
2022/08/29 00:43:32;;;;;;;6.70;2.90;;;;;;;;;;108706;1297;22442;-25
2022/08/29 00:46:02;;;;;;;3.80;2.70;;;;;;;;;;108736;1304;22384;-28
2022/08/29 00:48:28;;;;;;;3.30;2.20;;;;;;;;;;108119;1298;23085;-24
2022/08/29 00:50:54;;;;;;;5.20;2.90;;;;;;;;;;108744;1297;22396;-28
2022/08/29 00:53:23;;;;;;;25.70;3.80;;;;;;;;;;108724;1297;23091;-25
2022/08/29 00:55:49;;;;;;;3.50;2.50;;;;;;;;;;108542;1298;25347;-24
2022/08/29 00:58:17;;;;;;;3.60;3.20;;;;;;;;;;108698;1302;23307;-24
2022/08/29 01:00:43;;;;;;;9.90;4.40;;;;;;;;;;108737;1297;23554;-24
2022/08/29 01:03:08;;;;;;;7.20;4.00;;;;;;;;;;107993;1297;1003367;-28
2022/08/29 01:05:35;;;;;;;8.10;3.40;;;;;;;;;;108699;1297;22534;-24
2022/08/29 01:08:00;;;;;;;10.10;3.30;;;;;;;;;;108624;1304;22495;-28
2022/08/29 01:12:55;;;;;;;7.00;2.10;;;;;;;;;;108727;1299;22433;-28
2022/08/29 01:15:21;;;;;;;2.20;1.80;;;;;;;;;;108757;1297;23165;-28
2022/08/29 01:17:46;;;;;;;3.70;2.70;;;;;;;;;;108728;1297;22188;-24
2022/08/29 01:20:17;;;;;;;6.70;3.10;;;;;;;;;;108621;1298;23342;-24
2022/08/29 01:22:47;;;;;;;4.20;3.20;;;;;;;;;;108720;1298;22211;-24
2022/08/29 01:25:13;;;;;;;4.20;3.00;;;;;;;;;;108759;1298;23301;-28
2022/08/29 01:27:39;;;;;;;4.10;3.00;;;;;;;;;;108691;1304;22503;-28
2022/08/29 01:30:05;;;;;;;4.50;3.80;;;;;;;;;;108667;1299;22824;-28
2022/08/29 01:32:31;;;;;;;6.40;3.90;;;;;;;;;;108754;1297;22847;-24
2022/08/29 01:34:57;;;;;;;3.30;2.10;;;;;;;;;;108725;1297;22521;-24
2022/08/29 01:37:22;;;;;;;12.90;5.00;;;;;;;;;;108757;1297;22461;-24
2022/08/29 01:39:48;;;;;;;23.40;4.00;;;;;;;;;;108686;1304;22530;-28
2022/08/29 01:42:15;;;;;;;3.70;2.80;;;;;;;;;;108763;1297;23184;-28
2022/08/29 01:44:41;;;;;;;7.50;2.50;;;;;;;;;;108721;1297;22563;-24
2022/08/29 01:47:06;;;;;;;14.80;3.00;;;;;;;;;;108745;1299;23079;-28
2022/08/29 01:49:32;;;;;;;5.00;2.60;;;;;;;;;;108757;1297;22059;-24
2022/08/29 01:51:58;;;;;;;16.80;3.10;;;;;;;;;;108648;1302;23391;-28
2022/08/29 01:54:24;;;;;;;5.70;2.70;;;;;;;;;;108745;1304;22520;-28
2022/08/29 01:56:50;;;;;;;3.60;3.20;;;;;;;;;;108711;1297;23356;-29
2022/08/29 01:59:17;;;;;;;4.80;3.40;;;;;;;;;;108740;1298;23115;-24
2022/08/29 02:01:47;;;;;;;9.00;4.40;;;;;;;;;;108741;1297;23145;-24
2022/08/29 02:04:12;;;;;;;5.40;2.80;;;;;;;;;;108725;1299;23339;-28
2022/08/29 02:06:39;;;;;;;8.80;3.30;;;;;;;;;;108708;1299;23215;-25
2022/08/29 02:09:04;;;;;;;7.50;3.50;;;;;;;;;;108241;1298;22426;-28
2022/08/29 02:11:31;;;;;;;3.80;2.10;;;;;;;;;;108725;1298;23776;-26
2022/08/29 02:13:57;;;;;;;3.30;2.40;;;;;;;;;;108741;1304;22807;-30
2022/08/29 02:16:23;;;;;;;8.80;3.20;;;;;;;;;;108677;1297;23278;-30
2022/08/29 02:18:49;;;;;;;11.50;6.10;;;;;;;;;;108741;1298;22393;-26
2022/08/29 02:21:15;;;;;;;4.60;3.20;;;;;;;;;;108749;1298;22989;-26
2022/08/29 02:23:40;;;;;;;2.70;2.10;;;;;;;;;;108731;1304;22549;-26
2022/08/29 02:26:06;;;;;;;4.70;3.10;;;;;;;;;;108773;1298;23217;-26
2022/08/29 02:28:32;;;;;;;2.80;2.30;;;;;;;;;;108754;1298;23313;-26
2022/08/29 02:30:58;;;;;;;6.00;3.80;;;;;;;;;;108734;1299;23157;-27
2022/08/29 02:33:24;;;;;;;5.40;3.20;;;;;;;;;;108734;1297;22479;-30
2022/08/29 02:35:49;;;;;;;12.30;3.10;;;;;;;;;;108483;1297;23033;-26
2022/08/29 02:38:15;;;;;;;7.60;3.90;;;;;;;;;;108762;1286;23332;-26
2022/08/29 02:40:41;;;;;;;13.40;4.30;;;;;;;;;;108726;1298;22459;-30
2022/08/29 02:43:07;;;;;;;6.90;3.40;;;;;;;;;;108701;1299;23661;-26
2022/08/29 02:45:34;;;;;;;12.50;5.50;;;;;;;;;;108736;1298;22540;-27
2022/08/29 02:48:00;;;;;;;14.10;4.50;;;;;;;;;;108723;1298;23175;-30
2022/08/29 02:50:25;;;;;;;6.30;4.30;;;;;;;;;;108704;1298;23130;-26
2022/08/29 02:52:51;;;;;;;3.10;2.00;;;;;;;;;;108433;1304;22859;-30
2022/08/29 02:55:18;;;;;;;6.90;5.50;;;;;;;;;;108758;1298;22377;-26
2022/08/29 02:57:44;;;;;;;8.60;5.10;;;;;;;;;;108718;1299;22418;-26
2022/08/29 03:00:11;;;;;;;12.30;4.60;;;;;;;;;;108735;1297;22401;-30
2022/08/29 03:02:37;;;;;;;3.60;2.20;;;;;;;;;;108735;1298;22544;-26
2022/08/29 03:05:03;;;;;;;9.70;5.30;;;;;;;;;;108728;1297;23069;-27
2022/08/29 03:07:28;;;;;;;7.70;5.60;;;;;;;;;;108740;1304;22532;-26
2022/08/29 03:09:54;;;;;;;6.60;4.90;;;;;;;;;;108753;1297;23199;-30
2022/08/29 03:12:19;;;;;;;8.60;4.20;;;;;;;;;;108719;1297;22416;-24
2022/08/29 03:14:45;;;;;;;5.30;4.50;;;;;;;;;;108770;1298;22329;-24
2022/08/29 03:17:10;;;;;;;13.10;6.00;;;;;;;;;;108752;1298;22431;-24
2022/08/29 03:19:36;;;;;;;13.90;6.00;;;;;;;;;;108724;1297;23148;-24
2022/08/29 03:22:01;;;;;;;7.10;4.60;;;;;;;;;;108588;1298;23295;-29
2022/08/29 03:24:27;;;;;;;10.20;4.90;;;;;;;;;;108622;1304;22606;-24
2022/08/29 03:26:53;;;;;;;15.60;5.90;;;;;;;;;;108673;1304;22733;-28
2022/08/29 03:29:18;;;;;;;8.60;5.60;;;;;;;;;;108742;1298;22554;-24
2022/08/29 03:31:44;;;;;;;6.30;4.10;;;;;;;;;;108726;1299;22199;-25
2022/08/29 03:34:09;;;;;;;12.20;6.00;;;;;;;;;;108751;1304;23142;-28
2022/08/29 03:36:35;;;;;;;7.90;5.40;;;;;;;;;;108720;1304;23225;-28
2022/08/29 03:39:00;;;;;;;8.00;4.90;;;;;;;;;;108382;1297;22532;-24
2022/08/29 03:41:26;;;;;;;6.00;4.60;;;;;;;;;;108740;1297;22434;-24
2022/08/29 03:43:54;;;;;;;11.90;5.10;;;;;;;;;;108662;1302;22568;-28
2022/08/29 03:46:20;;;;;;;6.40;5.60;;;;;;;;;;108444;1297;23067;-28
2022/08/29 03:48:45;;;;;;;8.30;4.10;;;;;;;;;;108677;1298;22415;-24
2022/08/29 03:51:11;;;;;;;6.70;3.90;;;;;;;;;;108669;1297;23305;-25
2022/08/29 03:53:36;;;;;;;8.30;5.10;;;;;;;;;;108623;1297;22530;-25
2022/08/29 03:56:03;;;;;;;20.60;5.00;;;;;;;;;;108612;1297;23303;-24
2022/08/29 03:58:28;;;;;;;6.00;4.20;;;;;;;;;;108624;1298;22391;-26
2022/08/29 04:00:53;;;;;;;9.80;4.60;;;;;;;;;;108691;1289;22338;-29
2022/08/29 04:03:19;;;;;;;11.00;5.70;;;;;;;;;;108736;1297;22554;-25
2022/08/29 04:05:44;;;;;;;11.30;5.10;;;;;;;;;;108658;1298;22932;-25
2022/08/29 04:08:10;;;;;;;7.10;4.90;;;;;;;;;;108680;1304;23289;-28
2022/08/29 04:10:36;;;;;;;8.90;4.90;;;;;;;;;;108484;1297;22220;-29
2022/08/29 04:13:02;;;;;;;9.00;5.90;;;;;;;;;;108730;1304;22954;-29
2022/08/29 04:15:31;;;;;;;11.20;5.00;;;;;;;;;;108738;1298;22538;-29
2022/08/29 04:17:57;;;;;;;3.30;1.80;;;;;;;;;;108553;1302;22456;-29
2022/08/29 04:20:23;;;;;;;20.20;5.40;;;;;;;;;;108739;1297;22528;-29
2022/08/29 04:22:49;;;;;;;10.80;6.40;;;;;;;;;;108740;1298;22410;-25
2022/08/29 04:25:14;;;;;;;5.40;4.90;;;;;;;;;;108745;1297;23169;-25
2022/08/29 04:27:42;;;;;;;7.30;4.30;;;;;;;;;;108758;1289;23379;-29
2022/08/29 04:30:09;;;;;;;6.60;3.50;;;;;;;;;;108557;1289;22473;-29
2022/08/29 04:32:42;;;;;;;7.40;4.20;;;;;;;;;;108724;1298;23282;-25
2022/08/29 04:35:08;;;;;;;7.40;5.00;;;;;;;;;;108711;1297;23395;-25
2022/08/29 04:37:34;;;;;;;4.00;2.60;;;;;;;;;;108737;1298;22450;-29
2022/08/29 04:40:00;;;;;;;7.30;3.70;;;;;;;;;;108593;1304;22415;-25
2022/08/29 04:42:26;;;;;;;9.60;4.30;;;;;;;;;;108642;1297;22647;-25
2022/08/29 04:44:51;;;;;;;3.00;2.70;;;;;;;;;;108707;1297;22085;-30
2022/08/29 04:47:20;;;;;;;25.50;5.20;;;;;;;;;;108582;1304;22399;-24
2022/08/29 04:49:48;;;;;;;6.50;4.10;;;;;;;;;;108703;1304;22539;-28
2022/08/29 04:52:14;;;;;;;15.50;4.00;;;;;;;;;;108727;1297;23195;-24
2022/08/29 04:54:39;;;;;;;10.30;2.50;;;;;;;;;;108436;1297;25149;-24
2022/08/29 04:57:05;;;;;;;13.90;6.20;;;;;;;;;;108073;1298;25235;-24
2022/08/29 04:59:31;;;;;;;8.50;3.90;;;;;;;;;;108004;1304;23632;-28
2022/08/29 05:01:56;;;;;;;7.00;4.00;;;;;;;;;;108013;1298;23071;-28
2022/08/29 05:04:22;;;;;;;6.50;4.90;;;;;;;;;;108230;1304;25227;-24
2022/08/29 05:06:47;;;;;;;11.20;5.50;;;;;;;;;;108281;1304;23533;-25
2022/08/29 05:09:13;;;;;;;7.60;4.90;;;;;;;;;;107959;1304;22443;-24
2022/08/29 05:11:39;;;;;;;13.90;4.10;;;;;;;;;;107859;1299;23689;-25
2022/08/29 05:14:04;;;;;;;7.00;3.60;;;;;;;;;;108366;1297;22522;-26
2022/08/29 05:16:31;;;;;;;20.40;6.00;;;;;;;;;;108034;1297;22557;-24
2022/08/29 05:18:58;;;;;;;8.20;5.30;;;;;;;;;;108505;1304;22591;-24
2022/08/29 05:21:26;;;;;;;3.00;2.10;;;;;;;;;;108701;1304;22251;-24
2022/08/29 05:23:52;;;;;;;6.80;4.00;;;;;;;;;;108686;1298;22537;-24
2022/08/29 05:26:17;;;;;;;7.50;5.50;;;;;;;;;;108705;1297;22414;-25
2022/08/29 05:28:43;;;;;;;8.10;5.40;;;;;;;;;;108713;1297;23203;-28
2022/08/29 05:31:10;;;;;;;15.30;4.10;;;;;;;;;;108707;1297;22073;-24
2022/08/29 05:33:37;;;;;;;7.40;4.90;;;;;;;;;;108715;1298;23256;-24
2022/08/29 05:36:02;;;;;;;9.20;5.80;;;;;;;;;;108686;1304;23328;-24
2022/08/29 05:38:28;;;;;;;10.10;4.80;;;;;;;;;;108662;1297;22585;-29
2022/08/29 05:40:53;;;;;;;8.20;5.50;;;;;;;;;;108662;1297;22925;-25
2022/08/29 05:43:19;;;;;;;6.50;4.30;;;;;;;;;;108613;1297;22734;-25
2022/08/29 05:45:44;;;;;;;12.30;6.70;;;;;;;;;;108641;1298;23325;-25
2022/08/29 05:48:10;;;;;;;4.10;3.50;;;;;;;;;;108066;1297;22874;-29
2022/08/29 05:50:37;;;;;;;6.30;4.80;;;;;;;;;;108740;1298;22602;-27
2022/08/29 05:53:02;;;;;;;17.60;5.50;;;;;;;;;;108574;1299;23204;-25
2022/08/29 05:55:28;;;;;;;10.40;5.00;;;;;;;;;;108717;1297;23319;-29
2022/08/29 05:57:54;;;;;;;11.70;5.50;;;;;;;;;;108722;1297;22581;-29
2022/08/29 06:00:19;;;;;;;6.60;4.40;;;;;;;;;;108728;1297;22207;-29
2022/08/29 06:02:45;;;;;;;9.50;5.40;;;;;;;;;;108582;1283;22530;-25
2022/08/29 06:05:10;;;;;;;6.00;4.50;;;;;;;;;;107702;1297;23553;-26
2022/08/29 06:07:35;;;;;;;6.80;4.70;;;;;;;;;;108698;1289;23416;-30
2022/08/29 06:10:05;;;;;;;8.70;3.30;;;;;;;;;;108730;1297;22243;-30
2022/08/29 06:12:31;;;;;;;9.90;5.00;;;;;;;;;;108233;1304;22528;-26
2022/08/29 06:14:57;;;;;;;7.30;4.10;;;;;;;;;;108636;1298;22401;-30
2022/08/29 06:17:22;;;;;;;7.00;4.50;;;;;;;;;;108685;1298;22519;-29
2022/08/29 06:19:50;;;;;;;6.80;3.10;;;;;;;;;;108594;1297;22991;-27
2022/08/29 06:22:15;;;;;;;6.40;3.40;;;;;;;;;;108653;1298;23125;-30
2022/08/29 06:24:41;;;;;;;12.00;5.20;;;;;;;;;;108592;1304;22447;-26
2022/08/29 06:27:07;;;;;;;6.40;4.00;;;;;;;;;;108662;1297;22556;-27
2022/08/29 06:29:33;;;;;;;8.00;2.70;;;;;;;;;;108554;1282;25238;-31
2022/08/29 06:31:58;;;;;;;7.80;3.50;;;;;;;;;;108468;1297;23117;-26
2022/08/29 06:34:24;;;;;;;2.80;2.60;;;;;;;;;;108679;1282;23395;-30
2022/08/29 06:36:50;;;;;;;3.40;2.30;;;;;;;;;;108709;1298;23293;-30
2022/08/29 06:39:16;;;;;;;5.90;3.00;;;;;;;;;;108381;1283;25229;-25
2022/08/29 06:41:41;;;;;;;8.00;3.30;;;;;;;;;;107906;1297;23223;-30
2022/08/29 06:44:07;;;;;;;7.50;2.40;;;;;;;;;;108520;1297;22511;-25
2022/08/29 06:46:34;;;;;;;10.90;4.50;;;;;;;;;;108080;1282;23181;-24
2022/08/29 06:49:00;;;;;;;6.60;4.20;;;;;;;;;;108480;1283;23281;-24
2022/08/29 06:51:25;;;;;;;9.00;3.60;;;;;;;;;;108700;1283;22635;-26
2022/08/29 06:53:51;;;;;;;9.40;3.90;;;;;;;;;;108454;1289;22566;-26
2022/08/29 06:56:17;;;;;;;7.20;3.50;;;;;;;;;;108492;1297;23284;-30
2022/08/29 06:58:42;;;;;;;7.30;4.00;;;;;;;;;;108511;1298;23135;-27
2022/08/29 07:01:09;;;;;;;4.80;3.80;;;;;;;;;;108616;1296;23325;-26
2022/08/29 07:03:35;;;;;;;12.20;4.30;;;;;;;;;;108483;1283;22554;-27
2022/08/29 07:06:01;;;;;;;6.50;3.90;;;;;;;;;;108598;1304;23055;-27
2022/08/29 07:08:26;;;;;;;4.50;2.70;;;;;;;;;;108540;1297;23182;-30
2022/08/29 07:10:52;;;;;;;9.30;3.70;;;;;;;;;;108527;1283;23249;-27
2022/08/29 07:13:17;;;;;;;8.40;3.30;;;;;;;;;;108653;1298;22533;-23
2022/08/29 07:15:42;;;;;;;7.20;3.50;;;;;;;;;;108700;1296;22549;-28
2022/08/29 07:18:08;;;;;;;6.90;4.70;;;;;;;;;;108722;1297;23117;-28
2022/08/29 07:20:36;;;;;;;6.90;4.00;;;;;;;;;;108710;1297;23137;-27
2022/08/29 07:23:01;;;;;;;9.60;3.80;;;;;;;;;;108138;1297;697091;-25
2022/08/29 07:25:27;;;;;;;8.50;3.50;;;;;;;;;;108708;1297;23535;-25
2022/08/29 07:27:52;;;;;;;4.60;2.60;;;;;;;;;;108669;1304;23217;-25
2022/08/29 07:30:19;;;;;;;2.40;2.00;;;;;;;;;;108514;1304;22416;-28
2022/08/29 07:32:45;;;;;;;5.10;3.40;;;;;;;;;;108710;1297;22564;-28
2022/08/29 07:35:11;;;;;;;5.80;3.50;;;;;;;;;;108701;1298;23258;-28
2022/08/29 07:37:37;;;;;;;9.10;3.20;;;;;;;;;;108638;1297;23227;-25
2022/08/29 07:40:03;;;;;;;3.40;2.50;;;;;;;;;;108702;1297;23153;-28
2022/08/29 07:42:29;;;;;;;4.50;2.70;;;;;;;;;;108665;1297;25343;-29
2022/08/29 07:44:54;;;;;;;9.80;2.80;;;;;;;;;;108744;1297;22513;-25
2022/08/29 07:47:20;;;;;;;6.30;3.20;;;;;;;;;;108447;1298;23082;-24
2022/08/29 07:49:49;;;;;;;20.60;3.10;;;;;;;;;;108719;1297;23216;-25
2022/08/29 07:52:14;;;;;;;85.90;4.00;;;;;;;;;;108708;1283;23576;-25
2022/08/29 07:54:40;;;;;;;6.40;2.50;;;;;;;;;;108693;1297;22577;-25
2022/08/29 07:57:05;;;;;;;3.40;1.90;;;;;;;;;;108442;1297;23241;-25
2022/08/29 07:59:31;;;;;;;7.10;1.80;;;;;;;;;;108249;1304;22574;-25
2022/08/29 08:01:56;;;;;;;4.40;1.90;;;;;;;;;;108571;1299;22514;-24
2022/08/29 08:04:22;;;;;;;2.40;1.10;;;;;;;;;;108581;1298;23225;-25
2022/08/29 08:06:48;;;;;;;3.60;1.20;;;;;;;;;;108651;1283;22544;-25
2022/08/29 08:09:14;;;;;;;4.50;2.20;;;;;;;;;;108596;1283;22582;-25
2022/08/29 08:11:39;;;;;;;4.40;2.40;;;;;;;;;;108733;1297;23202;-29
2022/08/29 08:14:05;;;;;;;6.40;2.50;;;;;;;;;;108727;1304;23210;-25
2022/08/29 08:16:31;;;;;;;3.50;2.10;;;;;;;;;;108548;1297;22687;-29
2022/08/29 08:18:56;;;;;;;9.10;1.90;;;;;;;;;;108752;1297;22713;-25
2022/08/29 08:21:22;;;;;;;12.00;2.90;;;;;;;;;;108747;1297;22539;-26
2022/08/29 08:23:48;;;;;;;2.70;1.30;;;;;;;;;;108685;1298;23460;-25
2022/08/29 08:26:13;;;;;;;2.80;1.30;;;;;;;;;;108585;1304;22351;-29
2022/08/29 08:28:39;;;;;;;5.80;1.20;;;;;;;;;;108685;1297;23838;-25
2022/08/29 08:31:05;;;;;;;3.50;0.70;;;;;;;;;;107874;1298;23225;-24
2022/08/29 08:33:33;;;;;;;5.20;1.50;;;;;;;;;;108647;1297;22519;-24
2022/08/29 08:35:59;;;;;;;2.90;1.20;;;;;;;;;;108450;1298;23194;-28
2022/08/29 08:38:25;;;;;;;8.80;1.70;;;;;;;;;;108575;1297;23687;-24
2022/08/29 08:40:55;;;;;;;2.80;1.00;;;;;;;;;;108671;1297;22549;-28
2022/08/29 08:43:24;;;;;;;2.50;1.20;;;;;;;;;;108667;1297;23095;-24
2022/08/29 08:45:49;;;;;;;4.80;1.50;;;;;;;;;;108593;1297;22538;-28
2022/08/29 08:48:17;;;;;;;2.60;1.30;;;;;;;;;;108569;1298;25201;-28
2022/08/29 08:50:44;;;;;;;2.50;1.60;;;;;;;;;;108682;1304;23784;-24
2022/08/29 08:53:13;;;;;;;4.10;1.90;;;;;;;;;;108523;1304;22531;-28
2022/08/29 08:55:41;;;;;;;12.90;1.50;;;;;;;;;;108619;1297;23247;-28
2022/08/29 08:58:08;;;;;;;11.10;2.00;;;;;;;;;;108234;1297;23702;-24
2022/08/29 09:00:36;;;;;;;2.60;1.50;;;;;;;;;;108628;1297;23149;-28
2022/08/29 09:03:04;;;;;;;3.20;1.20;;;;;;;;;;108624;1297;22420;-25
2022/08/29 09:05:35;;;;;;;2.70;0.80;;;;;;;;;;108529;1297;23124;-28
2022/08/29 09:08:04;;;;;;;6.10;1.30;;;;;;;;;;108120;1297;23232;-25
2022/08/29 09:10:31;;;;;;;3.60;1.70;;;;;;;;;;108175;1304;22531;-28
2022/08/29 09:13:00;;;;;;;8.80;2.00;;;;;;;;;;108663;1297;22486;-25
2022/08/29 09:15:30;;;;;;;4.30;1.30;;;;;;;;;;108418;1304;22560;-29
2022/08/29 09:17:57;;;;;;;5.50;1.20;;;;;;;;;;108475;1292;22588;-25
2022/08/29 09:20:23;;;;;;;3.70;3.30;;;;;;;;;;108466;1304;22603;-29
2022/08/29 09:22:54;;;;;;;3.60;1.80;;;;;;;;;;108568;1297;23734;-29
2022/08/29 09:25:21;;;;;;;5.00;1.30;;;;;;;;;;108282;1302;22592;-24
2022/08/29 09:27:49;;;;;;;4.30;0.70;;;;;;;;;;108418;1283;25295;-29
2022/08/29 09:30:16;;;;;;;3.30;1.00;;;;;;;;;;108326;1297;23112;-24
2022/08/29 09:32:45;;;;;;;3.30;1.80;;;;;;;;;;108574;1282;22585;-24
2022/08/29 09:35:14;;;;;;;4.30;1.50;;;;;;;;;;108328;1297;23273;-30
2022/08/29 09:37:40;;;;;;;2.30;1.30;;;;;;;;;;108047;1297;25210;-30
2022/08/29 09:40:11;;;;;;;1.70;0.80;;;;;;;;;;108562;1282;23347;-25
2022/08/29 09:42:38;;;;;;;3.50;1.50;;;;;;;;;;108176;1304;22536;-24
2022/08/29 09:45:07;;;;;;;2.60;0.90;;;;;;;;;;108585;1297;23100;-25
2022/08/29 09:47:34;;;;;;;3.00;1.10;;;;;;;;;;108714;1304;22654;-25
2022/08/29 09:50:04;;;;;;;6.10;1.10;;;;;;;;;;108679;1297;22626;-26
2022/08/29 09:52:29;;;;;;;3.80;1.60;;;;;;;;;;108384;1305;22521;-28
2022/08/29 09:54:55;;;;;;;1.30;0.70;;;;;;;;;;108709;1297;23275;-27
2022/08/29 09:57:22;;;;;;;1.60;0.70;;;;;;;;;;108692;1304;23121;-23
2022/08/29 09:59:49;;;;;;;1.60;1.00;;;;;;;;;;108590;1297;22595;-24
2022/08/29 10:02:18;;;;;;;6.80;1.30;;;;;;;;;;108446;1299;22527;-24
2022/08/29 10:04:44;;;;;;;2.70;0.90;;;;;;;;;;108542;1304;22522;-23
2022/08/29 10:07:11;;;;;;;4.40;1.00;;;;;;;;;;108227;1304;22532;-23
2022/08/29 10:09:37;;;;;;;2.30;1.50;;;;;;;;;;108686;1283;23232;-24
2022/08/29 10:12:06;;;;;;;1.50;0.90;;;;;;;;;;108705;1304;22565;-24
2022/08/29 10:14:33;;;;;;;4.20;0.80;;;;;;;;;;108439;1298;23261;-27
2022/08/29 10:18:19;;;;;;;6.70;1.10;;;;;;;;;;108262;1304;22535;-27
2022/08/29 10:19:46;;;;;;;9.50;3.60;;;;;;;;;;108596;1304;22766;-23
2022/08/29 10:22:16;;;;;;;4.60;1.40;;;;;;;;;;108594;1297;25234;-27
2022/08/29 10:24:50;;;;;;;4.30;1.20;;;;;;;;;;108657;1298;22547;-27
2022/08/29 10:27:23;;;;;;;7.40;1.30;;;;;;;;;;108697;1297;22553;-23
2022/08/29 10:29:57;;;;;;;9.90;1.20;;;;;;;;;;108685;1304;22908;-23
2022/08/29 10:32:26;;;;;;;1.60;0.80;;;;;;;;;;108620;1299;22443;-28
2022/08/29 10:34:54;;;;;;;3.50;1.30;;;;;;;;;;108593;1289;22534;-23
2022/08/29 10:37:25;;;;;;;3.20;0.90;;;;;;;;;;108696;1297;23207;-24
2022/08/29 10:40:02;;;;;;;7.10;1.60;;;;;;;;;;108627;1298;22558;-28
2022/08/29 10:42:27;;;;;;;7.50;1.70;;;;;;;;;;108692;1281;23233;-26
2022/08/29 10:44:52;;;;;;;1.80;1.10;;;;;;;;;;108680;1283;22717;-24
2022/08/29 10:47:21;;;;;;;5.30;1.70;;;;;;;;;;107974;1282;25197;-24
2022/08/29 10:49:51;;;;;;;2.00;1.20;;;;;;;;;;108477;1304;22540;-28
2022/08/29 10:52:20;;;;;;;9.50;1.20;;;;;;;;;;108511;1297;23016;-28
2022/08/29 10:54:53;;;;;;;3.50;1.60;;;;;;;;;;108229;1298;22555;-28
2022/08/29 10:57:22;;;;;;;1.30;0.50;;;;;;;;;;108649;1299;23001;-28
2022/08/29 10:59:48;;;;;;;1.70;1.30;;;;;;;;;;108589;1297;22458;-24
2022/08/29 11:02:18;;;;;;;6.30;1.20;;;;;;;;;;108719;1304;23211;-28
2022/08/29 11:04:46;;;;;;;7.00;1.00;;;;;;;;;;108358;1298;23277;-24
2022/08/29 11:07:15;;;;;;;5.00;1.60;;;;;;;;;;108662;1304;22903;-24
2022/08/29 11:09:42;;;;;;;4.90;1.40;;;;;;;;;;108697;1296;22536;-28
2022/08/29 11:12:08;;;;;;;1.30;0.80;;;;;;;;;;108615;1305;22571;-24
2022/08/29 11:14:36;;;;;;;6.70;0.80;;;;;;;;;;108570;1296;23053;-24
2022/08/29 11:17:01;;;;;;;3.10;1.40;;;;;;;;;;108629;1298;23863;-24
2022/08/29 11:19:30;;;;;;;5.00;0.90;;;;;;;;;;108623;1297;23285;-24
2022/08/29 11:21:58;;;;;;;8.30;1.30;;;;;;;;;;108540;1298;23359;-24
2022/08/29 11:24:25;;;;;;;1.00;0.70;;;;;;;;;;108630;1297;23261;-28
2022/08/29 11:26:51;;;;;;;4.40;1.30;;;;;;;;;;108699;1297;23202;-24
2022/08/29 11:29:17;;;;;;;4.30;2.30;;;;;;;;;;108470;1283;22514;-28
2022/08/29 11:31:46;;;;;;;2.70;1.50;;;;;;;;;;108680;1297;23149;-27
2022/08/29 11:34:12;;;;;;;1.00;0.50;;;;;;;;;;108617;1297;22524;-24
2022/08/29 11:36:45;;;;;;;2.80;1.20;;;;;;;;;;108696;1297;22550;-26
2022/08/29 11:39:14;;;;;;;1.30;0.90;;;;;;;;;;108733;1303;22613;-29
2022/08/29 11:41:41;;;;;;;5.70;2.10;;;;;;;;;;108619;1297;22687;-28
2022/08/29 11:44:10;;;;;;;3.60;1.30;;;;;;;;;;108727;1296;22580;-29
2022/08/29 11:46:37;;;;;;;6.00;1.60;;;;;;;;;;108671;1297;22336;-25
2022/08/29 11:49:06;;;;;;;4.10;1.10;;;;;;;;;;108665;1297;23388;-24
2022/08/29 11:51:33;;;;;;;6.30;1.50;;;;;;;;;;108688;1304;22554;-29
2022/08/29 11:54:19;;;;;;;6.30;0.80;;;;;;;;;;108569;1299;23094;-24
2022/08/29 11:56:45;;;;;;;10.10;1.60;;;;;;;;;;108685;1304;22615;-28
2022/08/29 11:59:10;;;;;;;6.10;1.30;;;;;;;;;;108189;1304;22935;-28
2022/08/29 12:01:37;;;;;;;3.90;1.10;;;;;;;;;;107005;1304;23210;-24
2022/08/29 12:04:04;;;;;;;2.70;1.40;;;;;;;;;;108644;1298;23219;-25
2022/08/29 12:06:31;;;;;;;2.90;1.20;;;;;;;;;;108672;1297;23120;-29
2022/08/29 12:09:07;;;;;;;4.70;1.60;;;;;;;;;;108512;1297;22520;-28
2022/08/29 12:11:36;;;;;;;4.00;1.50;;;;;;;;;;108558;1303;23193;-24
2022/08/29 12:14:01;;;;;;;5.30;0.90;;;;;;;;;;108662;1304;22638;-29
2022/08/29 12:16:30;;;;;;;3.30;1.30;;;;;;;;;;108663;1297;22543;-24
2022/08/29 12:18:56;;;;;;;3.20;1.30;;;;;;;;;;108619;1297;23238;-25
2022/08/29 12:21:25;;;;;;;1.90;0.90;;;;;;;;;;108523;1304;22503;-28
2022/08/29 12:23:50;;;;;;;7.70;1.50;;;;;;;;;;108677;1298;22537;-24
2022/08/29 12:26:28;;;;;;;1.50;0.80;;;;;;;;;;108477;1302;22535;-24
2022/08/29 12:28:57;;;;;;;2.10;0.80;;;;;;;;;;108518;1298;23356;-25
2022/08/29 12:31:26;;;;;;;4.10;1.30;;;;;;;;;;108706;1298;23379;-28
2022/08/29 12:33:55;;;;;;;4.10;1.40;;;;;;;;;;108687;1297;22906;-28
2022/08/29 12:36:24;;;;;;;5.30;1.60;;;;;;;;;;108660;1304;22550;-28
2022/08/29 12:38:50;;;;;;;4.00;1.20;;;;;;;;;;108669;1298;22370;-25
2022/08/29 12:41:20;;;;;;;1.20;0.60;;;;;;;;;;108571;1304;22541;-28
2022/08/29 12:43:45;;;;;;;3.00;1.50;;;;;;;;;;108622;1304;23180;-28
2022/08/29 12:46:15;;;;;;;15.90;1.70;;;;;;;;;;108039;1297;25241;-30
2022/08/29 12:48:41;;;;;;;5.60;1.10;;;;;;;;;;108572;1304;22548;-28
2022/08/29 12:51:08;;;;;;;3.80;1.20;;;;;;;;;;108658;1297;23269;-23
2022/08/29 12:53:34;;;;;;;5.10;1.50;;;;;;;;;;108664;1283;23191;-23
2022/08/29 12:56:00;;;;;;;4.20;1.70;;;;;;;;;;108722;1299;23083;-27
2022/08/29 12:58:29;;;;;;;4.80;1.90;;;;;;;;;;108273;1297;25238;-24
2022/08/29 13:00:55;;;;;;;4.30;1.20;;;;;;;;;;108453;1297;23258;-27
2022/08/29 13:03:20;;;;;;;3.30;1.30;;;;;;;;;;108334;1297;22527;-23
2022/08/29 13:05:46;;;;;;;10.50;1.20;;;;;;;;;;108644;1298;25225;-23
2022/08/29 13:08:13;;;;;;;3.80;1.00;;;;;;;;;;108484;1298;23105;-27
2022/08/29 13:10:40;;;;;;;1.10;0.90;;;;;;;;;;108707;1298;22526;-23
2022/08/29 13:13:12;;;;;;;11.40;1.20;;;;;;;;;;108693;1297;22541;-23
2022/08/29 13:15:38;;;;;;;8.30;1.20;;;;;;;;;;108612;1304;22582;-27
2022/08/29 13:18:04;;;;;;;3.90;0.80;;;;;;;;;;108682;1304;23100;-27
2022/08/29 13:20:33;;;;;;;4.60;1.30;;;;;;;;;;108737;1297;23222;-23
2022/08/29 13:23:02;;;;;;;4.80;1.20;;;;;;;;;;108701;1297;23157;-27
2022/08/29 13:25:27;;;;;;;9.70;1.10;;;;;;;;;;108450;1297;25230;-26
2022/08/29 13:27:55;;;;;;;4.90;1.10;;;;;;;;;;107959;1298;23130;-22
2022/08/29 13:30:21;;;;;;;4.60;1.20;;;;;;;;;;108447;1304;23222;-28
2022/08/29 13:32:50;;;;;;;0.70;0.50;;;;;;;;;;108654;1304;22546;-28
2022/08/29 13:35:16;;;;;;;2.60;1.10;;;;;;;;;;108523;1304;23237;-24
2022/08/29 13:37:43;;;;;;;3.00;1.00;;;;;;;;;;108536;1298;22510;-28
2022/08/29 13:40:12;;;;;;;2.80;1.20;;;;;;;;;;108514;1298;22439;-24
2022/08/29 13:42:42;;;;;;;3.80;1.20;;;;;;;;;;108123;1304;22519;-25
2022/08/29 13:45:07;;;;;;;2.60;1.20;;;;;;;;;;108546;1304;22493;-25
2022/08/29 13:47:39;;;;;;;3.80;1.00;;;;;;;;;;108522;1304;23286;-25
2022/08/29 13:50:06;;;;;;;2.40;1.10;;;;;;;;;;108687;1299;22545;-29
2022/08/29 13:52:32;;;;;;;3.00;1.00;;;;;;;;;;108591;1297;23226;-25
2022/08/29 13:54:57;;;;;;;8.00;1.20;;;;;;;;;;108669;1298;22513;-26
2022/08/29 13:57:25;;;;;;;6.70;1.00;;;;;;;;;;108490;1299;22516;-29
2022/08/29 13:59:50;;;;;;;4.10;1.30;;;;;;;;;;108116;1298;22524;-29
2022/08/29 14:02:16;;;;;;;2.90;0.90;;;;;;;;;;108644;1297;23228;-29
2022/08/29 14:04:42;;;;;;;3.80;0.70;;;;;;;;;;108537;1298;23079;-27
2022/08/29 14:07:08;;;;;;;5.80;1.10;;;;;;;;;;108699;1297;22467;-23
2022/08/29 14:09:34;;;;;;;5.00;0.90;;;;;;;;;;108456;1298;22461;-27
2022/08/29 14:12:00;;;;;;;4.20;0.80;;;;;;;;;;107953;1297;22962;-26
2022/08/29 14:14:25;;;;;;;2.30;1.00;;;;;;;;;;108661;1299;23215;-23
2022/08/29 14:16:52;;;;;;;8.20;1.40;;;;;;;;;;108630;1298;22851;-29
2022/08/29 14:19:18;;;;;;;2.80;1.00;;;;;;;;;;108513;1298;22477;-25
2022/08/29 14:21:44;;;;;;;2.90;1.00;;;;;;;;;;108661;1298;22634;-26
2022/08/29 14:24:09;;;;;;;4.40;0.80;;;;;;;;;;108700;1304;22516;-23
2022/08/29 14:26:35;;;;;;;4.10;0.90;;;;;;;;;;108262;1297;23176;-25
2022/08/29 14:29:01;;;;;;;3.80;1.30;;;;;;;;;;108500;1298;23328;-25